sensor_id;sensor_type;location;lat;lon;timestamp;temperature;humidity
22968;DHT22;11650;48.106;-1.696;2022-11-12T00:00:18;9.00;99.90
22968;DHT22;11650;48.106;-1.696;2022-11-12T00:02:43;9.00;99.90
22968;DHT22;11650;48.106;-1.696;2022-11-12T00:05:09;9.00;99.90
22968;DHT22;11650;48.106;-1.696;2022-11-12T00:07:34;9.00;99.90
22968;DHT22;11650;48.106;-1.696;2022-11-12T00:10:00;8.90;99.90
22968;DHT22;11650;48.106;-1.696;2022-11-12T00:12:26;8.90;99.90
22968;DHT22;11650;48.106;-1.696;2022-11-12T00:14:51;8.90;99.90
22968;DHT22;11650;48.106;-1.696;2022-11-12T00:17:17;8.90;99.90
22968;DHT22;11650;48.106;-1.696;2022-11-12T00:19:42;8.90;99.90
22968;DHT22;11650;48.106;-1.696;2022-11-12T00:22:08;8.80;99.90
22968;DHT22;11650;48.106;-1.696;2022-11-12T00:24:34;8.90;99.90
22968;DHT22;11650;48.106;-1.696;2022-11-12T00:26:59;8.80;99.90
22968;DHT22;11650;48.106;-1.696;2022-11-12T00:29:25;8.80;99.90
22968;DHT22;11650;48.106;-1.696;2022-11-12T00:31:50;8.70;99.90
22968;DHT22;11650;48.106;-1.696;2022-11-12T00:34:16;8.80;99.90
22968;DHT22;11650;48.106;-1.696;2022-11-12T00:36:42;8.80;99.90
22968;DHT22;11650;48.106;-1.696;2022-11-12T00:39:07;8.80;99.90
22968;DHT22;11650;48.106;-1.696;2022-11-12T00:41:33;8.70;99.90
22968;DHT22;11650;48.106;-1.696;2022-11-12T00:43:58;8.70;99.90
22968;DHT22;11650;48.106;-1.696;2022-11-12T00:46:24;8.70;99.90
22968;DHT22;11650;48.106;-1.696;2022-11-12T00:48:50;8.70;99.90
22968;DHT22;11650;48.106;-1.696;2022-11-12T00:51:15;8.70;99.90
22968;DHT22;11650;48.106;-1.696;2022-11-12T00:53:41;8.70;99.90
22968;DHT22;11650;48.106;-1.696;2022-11-12T00:56:07;8.60;99.90
22968;DHT22;11650;48.106;-1.696;2022-11-12T00:58:34;8.60;99.90
22968;DHT22;11650;48.106;-1.696;2022-11-12T01:01:08;8.70;99.90
22968;DHT22;11650;48.106;-1.696;2022-11-12T01:03:36;8.70;99.90
22968;DHT22;11650;48.106;-1.696;2022-11-12T01:06:06;8.70;99.90
22968;DHT22;11650;48.106;-1.696;2022-11-12T01:08:32;8.70;99.90
22968;DHT22;11650;48.106;-1.696;2022-11-12T01:11:11;8.70;99.90
22968;DHT22;11650;48.106;-1.696;2022-11-12T01:13:40;8.70;99.90
22968;DHT22;11650;48.106;-1.696;2022-11-12T01:16:12;8.70;99.90
22968;DHT22;11650;48.106;-1.696;2022-11-12T01:18:38;8.70;99.90
22968;DHT22;11650;48.106;-1.696;2022-11-12T01:21:06;8.80;99.90
22968;DHT22;11650;48.106;-1.696;2022-11-12T01:23:33;8.80;99.90
22968;DHT22;11650;48.106;-1.696;2022-11-12T01:26:03;8.90;99.90
22968;DHT22;11650;48.106;-1.696;2022-11-12T01:28:29;8.70;99.90
22968;DHT22;11650;48.106;-1.696;2022-11-12T01:30:55;8.70;99.90
22968;DHT22;11650;48.106;-1.696;2022-11-12T01:33:21;8.70;99.90
22968;DHT22;11650;48.106;-1.696;2022-11-12T01:35:46;8.70;99.90
22968;DHT22;11650;48.106;-1.696;2022-11-12T01:38:12;8.80;99.90
22968;DHT22;11650;48.106;-1.696;2022-11-12T01:40:37;8.70;99.90
22968;DHT22;11650;48.106;-1.696;2022-11-12T01:43:04;8.80;99.90
22968;DHT22;11650;48.106;-1.696;2022-11-12T01:45:33;8.80;99.90
22968;DHT22;11650;48.106;-1.696;2022-11-12T01:47:59;8.80;99.90
22968;DHT22;11650;48.106;-1.696;2022-11-12T01:50:29;8.80;99.90
22968;DHT22;11650;48.106;-1.696;2022-11-12T01:53:03;8.80;99.90
22968;DHT22;11650;48.106;-1.696;2022-11-12T01:55:32;8.80;99.90
22968;DHT22;11650;48.106;-1.696;2022-11-12T01:58:12;8.80;99.90
22968;DHT22;11650;48.106;-1.696;2022-11-12T02:00:40;8.70;99.90
22968;DHT22;11650;48.106;-1.696;2022-11-12T02:03:14;8.70;99.90
22968;DHT22;11650;48.106;-1.696;2022-11-12T02:05:41;8.70;99.90
22968;DHT22;11650;48.106;-1.696;2022-11-12T02:08:07;8.80;99.90
22968;DHT22;11650;48.106;-1.696;2022-11-12T02:10:37;8.80;99.90
22968;DHT22;11650;48.106;-1.696;2022-11-12T02:13:03;8.80;99.90
22968;DHT22;11650;48.106;-1.696;2022-11-12T02:15:47;8.70;99.90
22968;DHT22;11650;48.106;-1.696;2022-11-12T02:18:13;8.70;99.90
22968;DHT22;11650;48.106;-1.696;2022-11-12T02:20:39;8.70;99.90
22968;DHT22;11650;48.106;-1.696;2022-11-12T02:23:06;8.70;99.90
22968;DHT22;11650;48.106;-1.696;2022-11-12T02:25:32;8.70;99.90
22968;DHT22;11650;48.106;-1.696;2022-11-12T02:27:59;8.70;99.90
22968;DHT22;11650;48.106;-1.696;2022-11-12T02:30:35;8.70;99.90
22968;DHT22;11650;48.106;-1.696;2022-11-12T02:33:01;8.70;99.90
22968;DHT22;11650;48.106;-1.696;2022-11-12T02:35:28;8.70;99.90
22968;DHT22;11650;48.106;-1.696;2022-11-12T02:37:54;8.70;99.90
22968;DHT22;11650;48.106;-1.696;2022-11-12T02:40:20;8.80;99.90
22968;DHT22;11650;48.106;-1.696;2022-11-12T02:42:46;8.70;99.90
22968;DHT22;11650;48.106;-1.696;2022-11-12T02:45:12;8.70;99.90
22968;DHT22;11650;48.106;-1.696;2022-11-12T02:47:37;8.70;99.90
22968;DHT22;11650;48.106;-1.696;2022-11-12T02:50:04;8.70;99.90
22968;DHT22;11650;48.106;-1.696;2022-11-12T02:52:30;8.70;99.90
22968;DHT22;11650;48.106;-1.696;2022-11-12T02:54:56;8.70;99.90
22968;DHT22;11650;48.106;-1.696;2022-11-12T02:57:22;8.80;99.90
22968;DHT22;11650;48.106;-1.696;2022-11-12T02:59:48;8.80;99.90
22968;DHT22;11650;48.106;-1.696;2022-11-12T03:02:13;8.70;99.90
22968;DHT22;11650;48.106;-1.696;2022-11-12T03:04:39;8.70;99.90
22968;DHT22;11650;48.106;-1.696;2022-11-12T03:07:05;8.70;99.90
22968;DHT22;11650;48.106;-1.696;2022-11-12T03:09:30;8.70;99.90
22968;DHT22;11650;48.106;-1.696;2022-11-12T03:11:56;8.80;99.90
22968;DHT22;11650;48.106;-1.696;2022-11-12T03:14:22;8.80;99.90
22968;DHT22;11650;48.106;-1.696;2022-11-12T03:16:47;8.80;99.90
22968;DHT22;11650;48.106;-1.696;2022-11-12T03:19:13;8.80;99.90
22968;DHT22;11650;48.106;-1.696;2022-11-12T03:21:39;8.80;99.90
22968;DHT22;11650;48.106;-1.696;2022-11-12T03:24:04;8.80;99.90
22968;DHT22;11650;48.106;-1.696;2022-11-12T03:26:30;8.80;99.90
22968;DHT22;11650;48.106;-1.696;2022-11-12T03:28:56;8.90;99.90
22968;DHT22;11650;48.106;-1.696;2022-11-12T03:31:21;8.80;99.90
22968;DHT22;11650;48.106;-1.696;2022-11-12T03:33:47;8.80;99.90
22968;DHT22;11650;48.106;-1.696;2022-11-12T03:36:13;8.80;99.90
22968;DHT22;11650;48.106;-1.696;2022-11-12T03:38:38;8.90;99.90
22968;DHT22;11650;48.106;-1.696;2022-11-12T03:41:04;8.80;99.90
22968;DHT22;11650;48.106;-1.696;2022-11-12T03:43:29;8.80;99.90
22968;DHT22;11650;48.106;-1.696;2022-11-12T03:45:55;8.80;99.90
22968;DHT22;11650;48.106;-1.696;2022-11-12T03:48:21;8.80;99.90
22968;DHT22;11650;48.106;-1.696;2022-11-12T03:50:47;8.80;99.90
22968;DHT22;11650;48.106;-1.696;2022-11-12T03:53:14;8.80;99.90
22968;DHT22;11650;48.106;-1.696;2022-11-12T03:55:40;8.80;99.90
22968;DHT22;11650;48.106;-1.696;2022-11-12T03:58:05;8.80;99.90
22968;DHT22;11650;48.106;-1.696;2022-11-12T04:00:31;8.80;99.90
22968;DHT22;11650;48.106;-1.696;2022-11-12T04:02:57;8.80;99.90
22968;DHT22;11650;48.106;-1.696;2022-11-12T04:05:24;8.90;99.90
22968;DHT22;11650;48.106;-1.696;2022-11-12T04:08:21;8.80;99.90
22968;DHT22;11650;48.106;-1.696;2022-11-12T04:11:12;8.90;99.90
22968;DHT22;11650;48.106;-1.696;2022-11-12T04:13:39;8.80;99.90
22968;DHT22;11650;48.106;-1.696;2022-11-12T04:16:09;8.90;99.90
22968;DHT22;11650;48.106;-1.696;2022-11-12T04:18:56;8.90;99.90
22968;DHT22;11650;48.106;-1.696;2022-11-12T04:21:46;8.80;99.90
22968;DHT22;11650;48.106;-1.696;2022-11-12T04:24:27;8.80;99.90
22968;DHT22;11650;48.106;-1.696;2022-11-12T04:27:16;8.80;99.90
22968;DHT22;11650;48.106;-1.696;2022-11-12T04:29:42;8.90;99.90
22968;DHT22;11650;48.106;-1.696;2022-11-12T04:32:27;8.90;99.90
22968;DHT22;11650;48.106;-1.696;2022-11-12T04:34:53;8.80;99.90
22968;DHT22;11650;48.106;-1.696;2022-11-12T04:37:19;8.80;99.90
22968;DHT22;11650;48.106;-1.696;2022-11-12T04:39:45;8.80;99.90
22968;DHT22;11650;48.106;-1.696;2022-11-12T04:42:10;8.80;99.90
22968;DHT22;11650;48.106;-1.696;2022-11-12T04:44:55;8.80;99.90
22968;DHT22;11650;48.106;-1.696;2022-11-12T04:47:28;8.80;99.90
22968;DHT22;11650;48.106;-1.696;2022-11-12T04:49:54;8.90;99.90
22968;DHT22;11650;48.106;-1.696;2022-11-12T04:52:19;8.90;99.90
22968;DHT22;11650;48.106;-1.696;2022-11-12T04:54:45;8.80;99.90
22968;DHT22;11650;48.106;-1.696;2022-11-12T04:57:11;8.80;99.90
22968;DHT22;11650;48.106;-1.696;2022-11-12T04:59:36;8.80;99.90
22968;DHT22;11650;48.106;-1.696;2022-11-12T05:02:02;8.80;99.90
22968;DHT22;11650;48.106;-1.696;2022-11-12T05:04:28;8.80;99.90
22968;DHT22;11650;48.106;-1.696;2022-11-12T05:06:57;8.80;99.90
22968;DHT22;11650;48.106;-1.696;2022-11-12T05:09:25;8.80;99.90
22968;DHT22;11650;48.106;-1.696;2022-11-12T05:11:52;8.80;99.90
22968;DHT22;11650;48.106;-1.696;2022-11-12T05:14:20;8.80;99.90
22968;DHT22;11650;48.106;-1.696;2022-11-12T05:16:46;8.80;99.90
22968;DHT22;11650;48.106;-1.696;2022-11-12T05:19:12;8.80;99.90
22968;DHT22;11650;48.106;-1.696;2022-11-12T05:21:38;8.80;99.90
22968;DHT22;11650;48.106;-1.696;2022-11-12T05:24:23;8.80;99.90
22968;DHT22;11650;48.106;-1.696;2022-11-12T05:26:48;8.70;99.90
22968;DHT22;11650;48.106;-1.696;2022-11-12T05:29:14;8.80;99.90
22968;DHT22;11650;48.106;-1.696;2022-11-12T05:31:39;8.80;99.90
22968;DHT22;11650;48.106;-1.696;2022-11-12T05:34:05;8.80;99.90
22968;DHT22;11650;48.106;-1.696;2022-11-12T05:36:31;8.90;99.90
22968;DHT22;11650;48.106;-1.696;2022-11-12T05:38:56;8.80;99.90
22968;DHT22;11650;48.106;-1.696;2022-11-12T05:41:22;8.90;99.90
22968;DHT22;11650;48.106;-1.696;2022-11-12T05:43:48;8.90;99.90
22968;DHT22;11650;48.106;-1.696;2022-11-12T05:46:13;8.90;99.90
22968;DHT22;11650;48.106;-1.696;2022-11-12T05:48:39;8.90;99.90
22968;DHT22;11650;48.106;-1.696;2022-11-12T05:51:04;8.90;99.90
22968;DHT22;11650;48.106;-1.696;2022-11-12T05:53:30;8.90;99.90
22968;DHT22;11650;48.106;-1.696;2022-11-12T05:56:03;8.90;99.90
22968;DHT22;11650;48.106;-1.696;2022-11-12T05:58:29;8.90;99.90
22968;DHT22;11650;48.106;-1.696;2022-11-12T06:00:55;8.90;99.90
22968;DHT22;11650;48.106;-1.696;2022-11-12T06:03:21;8.90;99.90
22968;DHT22;11650;48.106;-1.696;2022-11-12T06:05:47;8.90;99.90
22968;DHT22;11650;48.106;-1.696;2022-11-12T06:08:12;8.90;99.90
22968;DHT22;11650;48.106;-1.696;2022-11-12T06:10:38;8.90;99.90
22968;DHT22;11650;48.106;-1.696;2022-11-12T06:13:05;8.90;99.90
22968;DHT22;11650;48.106;-1.696;2022-11-12T06:15:31;8.90;99.90
22968;DHT22;11650;48.106;-1.696;2022-11-12T06:17:57;8.90;99.90
22968;DHT22;11650;48.106;-1.696;2022-11-12T06:20:23;8.90;99.90
22968;DHT22;11650;48.106;-1.696;2022-11-12T06:22:49;8.90;99.90
22968;DHT22;11650;48.106;-1.696;2022-11-12T06:25:15;8.90;99.90
22968;DHT22;11650;48.106;-1.696;2022-11-12T06:27:41;8.90;99.90
22968;DHT22;11650;48.106;-1.696;2022-11-12T06:30:08;8.90;99.90
22968;DHT22;11650;48.106;-1.696;2022-11-12T06:32:34;8.90;99.90
22968;DHT22;11650;48.106;-1.696;2022-11-12T06:34:59;8.80;99.90
22968;DHT22;11650;48.106;-1.696;2022-11-12T06:37:25;8.90;99.90
22968;DHT22;11650;48.106;-1.696;2022-11-12T06:39:50;8.80;99.90
22968;DHT22;11650;48.106;-1.696;2022-11-12T06:42:16;8.90;99.90
22968;DHT22;11650;48.106;-1.696;2022-11-12T06:44:42;8.90;99.90
22968;DHT22;11650;48.106;-1.696;2022-11-12T06:47:09;8.90;99.90
22968;DHT22;11650;48.106;-1.696;2022-11-12T06:49:35;8.80;99.90
22968;DHT22;11650;48.106;-1.696;2022-11-12T06:52:01;8.80;99.90
22968;DHT22;11650;48.106;-1.696;2022-11-12T06:54:26;8.80;99.90
22968;DHT22;11650;48.106;-1.696;2022-11-12T06:56:52;8.80;99.90
22968;DHT22;11650;48.106;-1.696;2022-11-12T06:59:17;8.70;99.90
22968;DHT22;11650;48.106;-1.696;2022-11-12T07:01:43;8.80;99.90
22968;DHT22;11650;48.106;-1.696;2022-11-12T07:04:08;8.70;99.90
22968;DHT22;11650;48.106;-1.696;2022-11-12T07:06:35;8.80;99.90
22968;DHT22;11650;48.106;-1.696;2022-11-12T07:09:00;8.80;99.90
22968;DHT22;11650;48.106;-1.696;2022-11-12T07:11:26;8.80;99.90
22968;DHT22;11650;48.106;-1.696;2022-11-12T07:13:51;8.80;99.90
22968;DHT22;11650;48.106;-1.696;2022-11-12T07:16:17;8.80;99.90
22968;DHT22;11650;48.106;-1.696;2022-11-12T07:18:43;8.70;99.90
22968;DHT22;11650;48.106;-1.696;2022-11-12T07:21:09;8.70;99.90
22968;DHT22;11650;48.106;-1.696;2022-11-12T07:23:36;8.80;99.90
22968;DHT22;11650;48.106;-1.696;2022-11-12T07:28:27;8.90;99.90
22968;DHT22;11650;48.106;-1.696;2022-11-12T07:31:03;8.90;99.90
22968;DHT22;11650;48.106;-1.696;2022-11-12T07:33:29;9.00;99.90
22968;DHT22;11650;48.106;-1.696;2022-11-12T07:36:02;9.00;99.90
22968;DHT22;11650;48.106;-1.696;2022-11-12T07:38:28;9.10;99.90
22968;DHT22;11650;48.106;-1.696;2022-11-12T07:41:01;9.10;99.90
22968;DHT22;11650;48.106;-1.696;2022-11-12T07:43:27;9.10;99.90
22968;DHT22;11650;48.106;-1.696;2022-11-12T07:45:56;9.20;99.90
22968;DHT22;11650;48.106;-1.696;2022-11-12T07:48:22;9.20;99.90
22968;DHT22;11650;48.106;-1.696;2022-11-12T07:50:47;9.20;99.90
22968;DHT22;11650;48.106;-1.696;2022-11-12T07:53:13;9.20;99.90
22968;DHT22;11650;48.106;-1.696;2022-11-12T07:55:38;9.30;99.90
22968;DHT22;11650;48.106;-1.696;2022-11-12T07:58:04;9.30;99.90
22968;DHT22;11650;48.106;-1.696;2022-11-12T08:00:29;9.30;99.90
22968;DHT22;11650;48.106;-1.696;2022-11-12T08:02:57;9.40;99.90
22968;DHT22;11650;48.106;-1.696;2022-11-12T08:05:23;9.40;99.90
22968;DHT22;11650;48.106;-1.696;2022-11-12T08:07:48;9.40;99.90
22968;DHT22;11650;48.106;-1.696;2022-11-12T08:10:14;9.50;99.90
22968;DHT22;11650;48.106;-1.696;2022-11-12T08:12:39;9.50;99.90
22968;DHT22;11650;48.106;-1.696;2022-11-12T08:15:05;9.60;99.90
22968;DHT22;11650;48.106;-1.696;2022-11-12T08:17:30;9.60;99.90
22968;DHT22;11650;48.106;-1.696;2022-11-12T08:19:56;9.70;99.90
22968;DHT22;11650;48.106;-1.696;2022-11-12T08:22:21;9.80;99.90
22968;DHT22;11650;48.106;-1.696;2022-11-12T08:24:47;9.80;99.90
22968;DHT22;11650;48.106;-1.696;2022-11-12T08:27:13;9.80;99.90
22968;DHT22;11650;48.106;-1.696;2022-11-12T08:29:38;9.90;99.90
22968;DHT22;11650;48.106;-1.696;2022-11-12T08:32:04;10.00;99.90
22968;DHT22;11650;48.106;-1.696;2022-11-12T08:34:29;10.00;99.90
22968;DHT22;11650;48.106;-1.696;2022-11-12T08:36:55;10.10;99.90
22968;DHT22;11650;48.106;-1.696;2022-11-12T08:39:20;10.20;99.90
22968;DHT22;11650;48.106;-1.696;2022-11-12T08:41:46;10.30;99.90
22968;DHT22;11650;48.106;-1.696;2022-11-12T08:44:11;10.30;99.90
22968;DHT22;11650;48.106;-1.696;2022-11-12T08:46:37;10.40;99.90
22968;DHT22;11650;48.106;-1.696;2022-11-12T08:49:02;10.50;99.90
22968;DHT22;11650;48.106;-1.696;2022-11-12T08:51:28;10.50;99.90
22968;DHT22;11650;48.106;-1.696;2022-11-12T08:53:53;10.60;99.90
22968;DHT22;11650;48.106;-1.696;2022-11-12T08:56:19;10.70;99.90
22968;DHT22;11650;48.106;-1.696;2022-11-12T08:58:45;10.80;99.90
22968;DHT22;11650;48.106;-1.696;2022-11-12T09:01:11;11.00;99.90
22968;DHT22;11650;48.106;-1.696;2022-11-12T09:03:36;11.10;99.90
22968;DHT22;11650;48.106;-1.696;2022-11-12T09:06:02;11.20;99.90
22968;DHT22;11650;48.106;-1.696;2022-11-12T09:08:28;11.20;99.90
22968;DHT22;11650;48.106;-1.696;2022-11-12T09:10:54;11.20;99.90
22968;DHT22;11650;48.106;-1.696;2022-11-12T09:13:21;11.20;99.90
22968;DHT22;11650;48.106;-1.696;2022-11-12T09:15:47;11.30;99.90
22968;DHT22;11650;48.106;-1.696;2022-11-12T09:18:16;11.30;99.90
22968;DHT22;11650;48.106;-1.696;2022-11-12T09:20:42;11.20;99.90
22968;DHT22;11650;48.106;-1.696;2022-11-12T09:23:09;11.20;99.90
22968;DHT22;11650;48.106;-1.696;2022-11-12T09:25:34;11.30;99.90
22968;DHT22;11650;48.106;-1.696;2022-11-12T09:28:07;11.30;99.90
22968;DHT22;11650;48.106;-1.696;2022-11-12T09:30:33;11.40;99.90
22968;DHT22;11650;48.106;-1.696;2022-11-12T09:32:58;11.40;99.90
22968;DHT22;11650;48.106;-1.696;2022-11-12T09:35:24;11.50;99.90
22968;DHT22;11650;48.106;-1.696;2022-11-12T09:37:50;11.50;99.90
22968;DHT22;11650;48.106;-1.696;2022-11-12T09:40:17;11.50;99.90
22968;DHT22;11650;48.106;-1.696;2022-11-12T09:42:46;11.60;99.90
22968;DHT22;11650;48.106;-1.696;2022-11-12T09:45:27;11.60;99.90
22968;DHT22;11650;48.106;-1.696;2022-11-12T09:47:58;11.70;99.90
22968;DHT22;11650;48.106;-1.696;2022-11-12T09:53:03;12.00;99.90
22968;DHT22;11650;48.106;-1.696;2022-11-12T09:55:37;12.10;99.90
22968;DHT22;11650;48.106;-1.696;2022-11-12T09:58:17;12.30;99.90
22968;DHT22;11650;48.106;-1.696;2022-11-12T10:00:59;12.30;99.90
22968;DHT22;11650;48.106;-1.696;2022-11-12T10:03:46;12.30;99.90
22968;DHT22;11650;48.106;-1.696;2022-11-12T10:06:22;12.40;99.90
22968;DHT22;11650;48.106;-1.696;2022-11-12T10:11:34;12.60;99.90
22968;DHT22;11650;48.106;-1.696;2022-11-12T10:14:25;12.70;99.90
22968;DHT22;11650;48.106;-1.696;2022-11-12T10:19:32;12.80;99.90
22968;DHT22;11650;48.106;-1.696;2022-11-12T10:22:15;12.90;99.90
22968;DHT22;11650;48.106;-1.696;2022-11-12T10:24:47;13.10;99.90
22968;DHT22;11650;48.106;-1.696;2022-11-12T10:27:22;13.10;99.90
22968;DHT22;11650;48.106;-1.696;2022-11-12T10:30:04;13.20;99.90
22968;DHT22;11650;48.106;-1.696;2022-11-12T10:32:30;13.20;99.90
22968;DHT22;11650;48.106;-1.696;2022-11-12T10:34:56;13.20;99.90
22968;DHT22;11650;48.106;-1.696;2022-11-12T10:37:25;13.40;99.90
22968;DHT22;11650;48.106;-1.696;2022-11-12T10:39:53;13.50;99.90
22968;DHT22;11650;48.106;-1.696;2022-11-12T10:42:19;13.60;99.90
22968;DHT22;11650;48.106;-1.696;2022-11-12T10:44:45;13.70;99.90
22968;DHT22;11650;48.106;-1.696;2022-11-12T10:47:19;13.80;99.90
22968;DHT22;11650;48.106;-1.696;2022-11-12T10:52:29;13.90;99.90
22968;DHT22;11650;48.106;-1.696;2022-11-12T10:55:14;14.00;99.90
22968;DHT22;11650;48.106;-1.696;2022-11-12T10:57:40;14.10;99.90
22968;DHT22;11650;48.106;-1.696;2022-11-12T11:02:45;14.30;99.90
22968;DHT22;11650;48.106;-1.696;2022-11-12T11:05:36;14.40;99.90
22968;DHT22;11650;48.106;-1.696;2022-11-12T11:08:03;14.70;99.90
22968;DHT22;11650;48.106;-1.696;2022-11-12T11:10:31;14.70;99.90
22968;DHT22;11650;48.106;-1.696;2022-11-12T11:15:41;14.90;99.90
22968;DHT22;11650;48.106;-1.696;2022-11-12T11:18:21;14.90;99.90
22968;DHT22;11650;48.106;-1.696;2022-11-12T11:20:49;15.00;99.90
22968;DHT22;11650;48.106;-1.696;2022-11-12T11:23:25;15.10;99.90
22968;DHT22;11650;48.106;-1.696;2022-11-12T11:25:53;15.20;99.90
22968;DHT22;11650;48.106;-1.696;2022-11-12T11:28:32;15.20;99.90
22968;DHT22;11650;48.106;-1.696;2022-11-12T11:43:54;15.90;99.90
22968;DHT22;11650;48.106;-1.696;2022-11-12T11:53:45;16.30;99.90
22968;DHT22;11650;48.106;-1.696;2022-11-12T11:56:25;16.50;99.90
22968;DHT22;11650;48.106;-1.696;2022-11-12T11:58:58;16.50;99.90
22968;DHT22;11650;48.106;-1.696;2022-11-12T12:01:42;16.50;99.90
22968;DHT22;11650;48.106;-1.696;2022-11-12T12:15:21;17.70;99.90
22968;DHT22;11650;48.106;-1.696;2022-11-12T12:17:50;18.90;99.90
22968;DHT22;11650;48.106;-1.696;2022-11-12T12:20:25;19.60;99.90
22968;DHT22;11650;48.106;-1.696;2022-11-12T12:25:36;21.50;99.90
22968;DHT22;11650;48.106;-1.696;2022-11-12T12:30:39;21.40;99.90
22968;DHT22;11650;48.106;-1.696;2022-11-12T12:35:45;22.00;99.90
22968;DHT22;11650;48.106;-1.696;2022-11-12T12:38:23;22.30;99.90
22968;DHT22;11650;48.106;-1.696;2022-11-12T12:40:54;22.50;99.90
22968;DHT22;11650;48.106;-1.696;2022-11-12T12:43:27;22.20;99.90
22968;DHT22;11650;48.106;-1.696;2022-11-12T12:45:55;22.80;99.90
22968;DHT22;11650;48.106;-1.696;2022-11-12T12:50:47;23.40;99.90
22968;DHT22;11650;48.106;-1.696;2022-11-12T12:53:15;23.90;99.90
22968;DHT22;11650;48.106;-1.696;2022-11-12T12:55:42;24.00;99.90
22968;DHT22;11650;48.106;-1.696;2022-11-12T12:58:18;23.90;99.90
22968;DHT22;11650;48.106;-1.696;2022-11-12T13:00:45;24.10;99.90
22968;DHT22;11650;48.106;-1.696;2022-11-12T13:03:11;23.90;99.90
22968;DHT22;11650;48.106;-1.696;2022-11-12T13:05:37;23.70;99.90
22968;DHT22;11650;48.106;-1.696;2022-11-12T13:08:11;23.70;99.90
22968;DHT22;11650;48.106;-1.696;2022-11-12T13:15:42;23.90;99.90
22968;DHT22;11650;48.106;-1.696;2022-11-12T13:18:08;24.50;99.90
22968;DHT22;11650;48.106;-1.696;2022-11-12T13:20:35;24.50;99.90
22968;DHT22;11650;48.106;-1.696;2022-11-12T13:23:02;25.20;99.90
22968;DHT22;11650;48.106;-1.696;2022-11-12T13:25:28;25.20;99.90
22968;DHT22;11650;48.106;-1.696;2022-11-12T13:28:04;25.40;99.90
22968;DHT22;11650;48.106;-1.696;2022-11-12T13:32:56;25.20;99.90
22968;DHT22;11650;48.106;-1.696;2022-11-12T13:40:14;25.00;99.90
22968;DHT22;11650;48.106;-1.696;2022-11-12T13:42:40;25.50;99.90
22968;DHT22;11650;48.106;-1.696;2022-11-12T13:45:15;25.10;99.90
22968;DHT22;11650;48.106;-1.696;2022-11-12T13:47:41;25.60;99.90
22968;DHT22;11650;48.106;-1.696;2022-11-12T13:50:08;26.00;99.90
22968;DHT22;11650;48.106;-1.696;2022-11-12T13:52:37;26.60;99.90
22968;DHT22;11650;48.106;-1.696;2022-11-12T13:55:05;26.70;99.90
22968;DHT22;11650;48.106;-1.696;2022-11-12T13:57:31;27.00;99.90
22968;DHT22;11650;48.106;-1.696;2022-11-12T14:00:06;27.00;99.90
22968;DHT22;11650;48.106;-1.696;2022-11-12T14:02:32;26.80;99.90
22968;DHT22;11650;48.106;-1.696;2022-11-12T14:04:58;26.70;99.90
22968;DHT22;11650;48.106;-1.696;2022-11-12T14:16:01;26.70;99.90
22968;DHT22;11650;48.106;-1.696;2022-11-12T14:18:16;26.30;99.90
22968;DHT22;11650;48.106;-1.696;2022-11-12T14:20:45;25.80;99.90
22968;DHT22;11650;48.106;-1.696;2022-11-12T14:23:17;25.90;99.90
22968;DHT22;11650;48.106;-1.696;2022-11-12T14:30:50;26.90;99.90
22968;DHT22;11650;48.106;-1.696;2022-11-12T14:33:16;27.00;99.90
22968;DHT22;11650;48.106;-1.696;2022-11-12T14:35:42;26.90;99.90
22968;DHT22;11650;48.106;-1.696;2022-11-12T14:41:17;27.30;99.90
22968;DHT22;11650;48.106;-1.696;2022-11-12T14:43:28;26.70;99.90
22968;DHT22;11650;48.106;-1.696;2022-11-12T14:45:55;26.70;99.90
22968;DHT22;11650;48.106;-1.696;2022-11-12T14:48:22;26.40;99.90
22968;DHT22;11650;48.106;-1.696;2022-11-12T14:50:48;26.60;99.90
22968;DHT22;11650;48.106;-1.696;2022-11-12T14:53:17;26.10;99.90
22968;DHT22;11650;48.106;-1.696;2022-11-12T14:55:46;26.00;99.90
22968;DHT22;11650;48.106;-1.696;2022-11-12T14:58:15;26.20;99.90
22968;DHT22;11650;48.106;-1.696;2022-11-12T15:00:42;26.50;99.90
22968;DHT22;11650;48.106;-1.696;2022-11-12T15:03:15;26.90;99.90
22968;DHT22;11650;48.106;-1.696;2022-11-12T15:05:58;26.50;99.90
22968;DHT22;11650;48.106;-1.696;2022-11-12T15:08:40;26.50;99.90
22968;DHT22;11650;48.106;-1.696;2022-11-12T15:13:49;26.60;99.90
22968;DHT22;11650;48.106;-1.696;2022-11-12T15:16:17;26.90;99.90
22968;DHT22;11650;48.106;-1.696;2022-11-12T15:18:43;25.90;99.90
22968;DHT22;11650;48.106;-1.696;2022-11-12T15:21:24;25.60;99.90
22968;DHT22;11650;48.106;-1.696;2022-11-12T15:23:53;24.80;99.90
22968;DHT22;11650;48.106;-1.696;2022-11-12T15:26:40;25.00;99.90
22968;DHT22;11650;48.106;-1.696;2022-11-12T15:29:20;24.90;99.90
22968;DHT22;11650;48.106;-1.696;2022-11-12T15:31:48;24.80;99.90
22968;DHT22;11650;48.106;-1.696;2022-11-12T15:36:59;24.70;99.90
22968;DHT22;11650;48.106;-1.696;2022-11-12T15:39:26;24.80;99.90
22968;DHT22;11650;48.106;-1.696;2022-11-12T15:41:57;24.00;99.90
22968;DHT22;11650;48.106;-1.696;2022-11-12T15:44:23;23.70;99.90
22968;DHT22;11650;48.106;-1.696;2022-11-12T15:46:49;23.70;99.90
22968;DHT22;11650;48.106;-1.696;2022-11-12T15:49:14;23.60;99.90
22968;DHT22;11650;48.106;-1.696;2022-11-12T15:51:40;21.80;99.90
22968;DHT22;11650;48.106;-1.696;2022-11-12T15:54:06;20.40;99.90
22968;DHT22;11650;48.106;-1.696;2022-11-12T15:56:31;19.60;99.90
22968;DHT22;11650;48.106;-1.696;2022-11-12T15:58:57;19.10;99.90
22968;DHT22;11650;48.106;-1.696;2022-11-12T16:01:22;18.70;99.90
22968;DHT22;11650;48.106;-1.696;2022-11-12T16:03:48;18.30;99.90
22968;DHT22;11650;48.106;-1.696;2022-11-12T16:06:14;18.10;99.90
22968;DHT22;11650;48.106;-1.696;2022-11-12T16:08:39;17.90;99.90
22968;DHT22;11650;48.106;-1.696;2022-11-12T16:11:05;17.60;99.90
22968;DHT22;11650;48.106;-1.696;2022-11-12T16:13:50;17.50;99.90
22968;DHT22;11650;48.106;-1.696;2022-11-12T16:16:16;17.40;99.90
22968;DHT22;11650;48.106;-1.696;2022-11-12T16:18:42;17.20;99.90
22968;DHT22;11650;48.106;-1.696;2022-11-12T16:21:08;17.20;99.90
22968;DHT22;11650;48.106;-1.696;2022-11-12T16:23:34;17.00;99.90
22968;DHT22;11650;48.106;-1.696;2022-11-12T16:26:04;16.90;99.90
22968;DHT22;11650;48.106;-1.696;2022-11-12T16:28:31;16.80;99.90
22968;DHT22;11650;48.106;-1.696;2022-11-12T16:30:57;16.70;99.90
22968;DHT22;11650;48.106;-1.696;2022-11-12T16:33:23;16.60;99.90
22968;DHT22;11650;48.106;-1.696;2022-11-12T16:35:48;16.50;99.90
22968;DHT22;11650;48.106;-1.696;2022-11-12T16:38:15;16.40;99.90
22968;DHT22;11650;48.106;-1.696;2022-11-12T16:40:42;16.30;99.90
22968;DHT22;11650;48.106;-1.696;2022-11-12T16:43:08;16.20;99.90
22968;DHT22;11650;48.106;-1.696;2022-11-12T16:45:38;16.20;99.90
22968;DHT22;11650;48.106;-1.696;2022-11-12T16:48:15;16.10;99.90
22968;DHT22;11650;48.106;-1.696;2022-11-12T16:50:41;16.00;99.90
22968;DHT22;11650;48.106;-1.696;2022-11-12T16:53:07;15.90;99.90
22968;DHT22;11650;48.106;-1.696;2022-11-12T16:55:33;15.90;99.90
22968;DHT22;11650;48.106;-1.696;2022-11-12T16:57:58;15.80;99.90
22968;DHT22;11650;48.106;-1.696;2022-11-12T17:00:24;15.70;99.90
22968;DHT22;11650;48.106;-1.696;2022-11-12T17:02:50;15.70;99.90
22968;DHT22;11650;48.106;-1.696;2022-11-12T17:05:22;15.70;99.90